Time;durP1;ratioP1;P1;durP2;ratioP2;P2;SDS_P1;SDS_P2;PMS_P1;PMS_P2;Temp;Humidity;BMP_temperature;BMP_pressure;BME280_temperature;BME280_humidity;BME280_pressure;Samples;Min_cycle;Max_cycle;Signal;HPM_P1;HPM_P2
2022/02/02 00:01:51;;;;;;;5.90;0.90;;;6.70;99.90;;;;;;10377298;28;20131;-63
2022/02/02 00:17:17;;;;;;;12.65;0.82;;;6.90;99.90;;;;;;10381705;28;20041;-61
2022/02/02 00:22:23;;;;;;;8.88;0.50;;;7.50;99.90;;;;;;10375550;28;20512;-61
2022/02/02 00:27:25;;;;;;;11.93;1.02;;;7.20;99.90;;;;;;10381516;28;20053;-62
2022/02/02 00:32:45;;;;;;;14.18;0.70;;;7.30;99.90;;;;;;10382719;28;20072;-61
2022/02/02 00:37:47;;;;;;;11.18;1.05;;;7.30;99.90;;;;;;10374960;28;20049;-62
2022/02/02 00:42:50;;;;;;;7.00;0.63;;;7.20;99.90;;;;;;10383849;28;20049;-61
2022/02/02 00:47:52;;;;;;;8.07;1.38;;;7.20;99.90;;;;;;10386336;28;20127;-61
2022/02/02 00:52:55;;;;;;;14.88;1.40;;;7.50;99.90;;;;;;10392278;28;20069;-61
2022/02/02 00:57:56;;;;;;;8.85;1.10;;;7.50;99.90;;;;;;10385379;28;20144;-61
2022/02/02 01:02:58;;;;;;;11.85;1.88;;;7.70;99.90;;;;;;10388211;28;20119;-62
2022/02/02 01:08:33;;;;;;;14.73;1.40;;;7.60;99.90;;;;;;10385756;28;20077;-60
2022/02/02 01:29:22;;;;;;;10.80;1.30;;;7.80;99.90;;;;;;10381839;28;20133;-62
2022/02/02 01:34:24;;;;;;;11.35;1.60;;;8.00;99.90;;;;;;10380613;28;20136;-62
2022/02/02 01:39:28;;;;;;;13.73;1.83;;;8.20;99.90;;;;;;10386020;28;20073;-62
2022/02/02 01:44:45;;;;;;;22.90;3.40;;;8.20;99.90;;;;;;10387825;28;20048;-62
2022/02/02 01:55:10;;;;;;;12.75;0.98;;;8.30;99.90;;;;;;10384923;28;20076;-62
2022/02/02 02:00:13;;;;;;;21.85;1.50;;;8.30;99.90;;;;;;10381036;28;20065;-62
2022/02/02 02:05:15;;;;;;;12.27;1.60;;;8.30;99.90;;;;;;10380424;28;20900;-61
2022/02/02 02:10:18;;;;;;;14.50;3.63;;;8.30;99.90;;;;;;10385849;28;20085;-62
2022/02/02 02:15:23;;;;;;;17.83;2.42;;;8.30;99.90;;;;;;10380039;28;20288;-61
2022/02/02 02:20:25;;;;;;;17.80;1.70;;;8.20;99.90;;;;;;10385990;28;23017;-61
2022/02/02 02:25:32;;;;;;;12.68;2.47;;;8.10;99.90;;;;;;10381044;28;20077;-62
2022/02/02 02:30:54;;;;;;;;;;;8.00;99.90;;;;;;10380444;28;20045;-62
2022/02/02 02:36:22;;;;;;;12.25;1.00;;;8.00;99.90;;;;;;10380761;28;19925;-62
2022/02/02 02:57:21;;;;;;;8.15;1.00;;;7.70;99.90;;;;;;10381852;28;20149;-62
2022/02/02 03:03:04;;;;;;;15.13;2.42;;;7.60;99.90;;;;;;10380393;28;20334;-61
2022/02/02 03:55:51;;;;;;;17.42;3.13;;;7.20;99.90;;;;;;10374610;28;20130;-61
2022/02/02 04:06:19;;;;;;;14.93;1.20;;;7.20;99.90;;;;;;10379728;28;20140;-60
2022/02/02 04:11:32;;;;;;;8.88;1.13;;;7.20;99.90;;;;;;10381856;28;20038;-60
2022/02/02 04:38:38;;;;;;;10.60;2.03;;;7.00;99.90;;;;;;10385046;28;20063;-61
2022/02/02 05:10:28;;;;;;;12.07;1.50;;;7.00;99.90;;;;;;10386274;28;20089;-61
2022/02/02 05:15:57;;;;;;;11.65;1.48;;;7.00;99.90;;;;;;10393059;28;20053;-62
2022/02/02 05:27:25;;;;;;;11.75;2.22;;;7.10;99.90;;;;;;10385995;28;20091;-61
2022/02/02 05:53:02;;;;;;;21.17;1.90;;;7.30;99.90;;;;;;10384396;28;20056;-61
2022/02/02 05:58:07;;;;;;;13.10;2.35;;;7.30;99.90;;;;;;10383954;28;20048;-61
2022/02/02 06:03:14;;;;;;;11.48;2.25;;;7.40;99.50;;;;;;10390061;28;20064;-61
2022/02/02 06:08:16;;;;;;;14.10;1.40;;;7.40;99.90;;;;;;10382791;28;20049;-62
2022/02/02 06:13:18;;;;;;;20.02;1.65;;;7.30;99.90;;;;;;10383925;28;20133;-62
2022/02/02 06:18:26;;;;;;;16.90;1.50;;;7.20;99.90;;;;;;10383944;28;20077;-61
2022/02/02 06:23:38;;;;;;;18.10;1.85;;;7.20;99.90;;;;;;10385983;28;20045;-61
2022/02/02 06:28:44;;;;;;;10.68;1.30;;;7.40;99.30;;;;;;10378569;28;20081;-61
2022/02/02 06:33:52;;;;;;;13.97;2.70;;;7.40;99.70;;;;;;10378155;28;20111;-62
2022/02/02 06:38:54;;;;;;;12.55;1.42;;;7.40;99.90;;;;;;10375045;28;20045;-62
2022/02/02 06:43:56;;;;;;;19.05;1.40;;;7.40;99.90;;;;;;10384891;28;20073;-62
2022/02/02 06:48:59;;;;;;;9.95;1.25;;;7.40;99.90;;;;;;10380359;28;20052;-63
2022/02/02 06:54:10;;;;;;;8.73;1.42;;;7.50;99.90;;;;;;10382940;28;20451;-62
2022/02/02 07:00:13;;;;;;;17.40;2.38;;;7.40;99.90;;;;;;10379132;28;20128;-62
2022/02/02 07:15:29;;;;;;;10.73;1.58;;;7.30;99.90;;;;;;10380402;28;19921;-65
2022/02/02 07:21:29;;;;;;;10.70;1.08;;;7.30;99.90;;;;;;10376871;28;20123;-65
2022/02/02 07:31:41;;;;;;;9.45;0.90;;;7.50;97.90;;;;;;10375996;28;20041;-65
2022/02/02 07:36:50;;;;;;;7.90;0.82;;;7.60;97.20;;;;;;10383792;28;20111;-65
2022/02/02 07:41:59;;;;;;;16.33;1.40;;;7.70;97.40;;;;;;10379847;28;20492;-65
2022/02/02 07:47:06;;;;;;;14.27;1.10;;;7.70;95.30;;;;;;10382905;28;20069;-66
2022/02/02 07:52:09;;;;;;;8.77;1.03;;;7.70;96.50;;;;;;10382354;28;20534;-66
2022/02/02 07:57:16;;;;;;;8.43;1.52;;;7.70;97.10;;;;;;10388314;28;20123;-66
2022/02/02 08:02:21;;;;;;;12.10;1.33;;;7.80;95.90;;;;;;10384635;28;20069;-66
2022/02/02 08:07:34;;;;;;;11.77;0.95;;;7.80;96.70;;;;;;10388656;28;20368;-66
2022/02/02 08:12:44;;;;;;;11.30;0.90;;;7.80;96.70;;;;;;10384777;28;20053;-66
2022/02/02 08:17:48;;;;;;;14.18;0.90;;;7.80;95.50;;;;;;10383711;28;20053;-66
2022/02/02 08:22:51;;;;;;;5.97;1.17;;;7.80;96.80;;;;;;10391649;28;20048;-66
2022/02/02 08:27:59;;;;;;;8.68;1.83;;;7.80;97.70;;;;;;10386666;28;20111;-66
2022/02/02 08:33:04;;;;;;;11.80;2.03;;;7.80;97.00;;;;;;10387832;28;20503;-67
2022/02/02 08:43:23;;;;;;;9.43;1.25;;;7.80;99.90;;;;;;10387035;28;20406;-66
2022/02/02 08:48:27;;;;;;;7.95;0.88;;;7.70;99.90;;;;;;10383265;28;20069;-66
2022/02/02 08:53:36;;;;;;;7.20;0.50;;;7.70;99.90;;;;;;10383550;28;20041;-66
2022/02/02 08:58:42;;;;;;;14.60;0.85;;;7.70;98.80;;;;;;10386261;28;20077;-66
2022/02/02 09:10:06;;;;;;;8.93;0.75;;;7.50;99.90;;;;;;10399263;28;20131;-66
2022/02/02 09:21:54;;;;;;;9.57;1.08;;;7.30;99.90;;;;;;10379238;28;20056;-65
2022/02/02 09:36:29;;;;;;;11.10;0.60;;;6.90;99.90;;;;;;10383685;28;20413;-66
2022/02/02 09:41:44;;;;;;;8.00;0.63;;;6.80;99.90;;;;;;10384890;28;20061;-64
2022/02/02 09:47:00;;;;;;;7.88;1.25;;;6.60;99.90;;;;;;10384901;28;20064;-64
2022/02/02 09:52:12;;;;;;;3.80;0.52;;;6.40;99.90;;;;;;10384564;28;20352;-62
2022/02/02 10:03:22;;;;;;;6.93;0.70;;;6.20;99.90;;;;;;10359806;28;20050;-63
2022/02/02 10:18:47;;;;;;;9.40;0.80;;;6.20;99.90;;;;;;10385682;28;20514;-63
2022/02/02 10:23:49;;;;;;;6.93;0.50;;;6.40;99.90;;;;;;10379896;28;20122;-63
2022/02/02 10:28:51;;;;;;;7.82;0.70;;;6.50;99.90;;;;;;10389972;28;20080;-63
2022/02/02 10:34:10;;;;;;;7.63;1.15;;;6.60;99.90;;;;;;10376055;28;20398;-63
2022/02/02 10:39:16;;;;;;;6.70;1.00;;;6.70;99.90;;;;;;10386923;28;20393;-63
2022/02/02 10:44:23;;;;;;;7.78;0.98;;;6.90;99.90;;;;;;10382356;28;20079;-63
2022/02/02 10:49:34;;;;;;;10.03;1.53;;;7.00;99.90;;;;;;10385742;28;20472;-62
2022/02/02 10:55:12;;;;;;;11.48;1.40;;;7.10;99.90;;;;;;10384956;28;20111;-63
2022/02/02 11:00:11;;;;;;;6.90;0.82;;;7.30;99.90;;;;;;10383167;28;20146;-63
2022/02/02 11:10:33;;;;;;;8.75;1.98;;;7.60;99.90;;;;;;10384736;28;20053;-62
2022/02/02 11:15:50;;;;;;;7.07;1.00;;;7.70;99.90;;;;;;10381328;28;20049;-64
2022/02/02 11:20:52;;;;;;;8.70;1.27;;;7.90;99.90;;;;;;10363794;28;20120;-63
2022/02/02 11:25:55;;;;;;;11.20;1.50;;;8.00;99.50;;;;;;10348920;28;20111;-64
2022/02/02 11:31:18;;;;;;;9.43;1.10;;;8.10;96.90;;;;;;10351212;28;20041;-65
2022/02/02 11:36:42;;;;;;;9.93;1.70;;;8.10;96.70;;;;;;10368453;28;20488;-64
2022/02/02 11:41:52;;;;;;;17.27;1.30;;;8.20;95.00;;;;;;10378284;28;20480;-64
2022/02/02 11:47:07;;;;;;;9.70;0.80;;;8.40;92.90;;;;;;10378022;28;20090;-64
2022/02/02 11:52:37;;;;;;;7.32;1.42;;;8.50;91.30;;;;;;10380691;28;20061;-65
2022/02/02 11:58:06;;;;;;;15.57;1.33;;;8.50;90.80;;;;;;10379721;28;20049;-65
2022/02/02 12:03:27;;;;;;;6.65;1.25;;;8.60;92.50;;;;;;10377619;28;20049;-65
2022/02/02 12:08:43;;;;;;;15.00;1.20;;;8.70;90.30;;;;;;10380325;28;20045;-65
2022/02/02 12:19:33;;;;;;;7.40;0.80;;;8.90;89.40;;;;;;10380571;28;20865;-65
2022/02/02 12:56:32;;;;;;;9.85;0.90;;;8.70;88.10;;;;;;10383868;28;20052;-65
2022/02/02 13:01:33;;;;;;;5.18;0.90;;;8.70;90.10;;;;;;10381026;28;20060;-65
2022/02/02 13:06:40;;;;;;;4.43;0.68;;;8.70;91.30;;;;;;10386808;28;20080;-64
2022/02/02 13:11:42;;;;;;;7.13;0.80;;;8.40;91.80;;;;;;10385258;28;20076;-65
2022/02/02 13:16:46;;;;;;;9.23;0.80;;;8.30;91.40;;;;;;10387010;28;20049;-65
2022/02/02 13:21:54;;;;;;;8.35;1.40;;;8.30;92.10;;;;;;10383964;28;20096;-65
2022/02/02 13:27:15;;;;;;;7.20;0.90;;;8.30;92.30;;;;;;10388697;28;20050;-64
2022/02/02 13:32:31;;;;;;;7.13;0.73;;;8.40;92.20;;;;;;10379985;28;20136;-65
2022/02/02 13:37:59;;;;;;;5.55;0.60;;;8.40;91.40;;;;;;10399016;28;20131;-65
2022/02/02 13:43:35;;;;;;;;;;;8.40;91.40;;;;;;10385318;28;20130;-65
2022/02/02 13:58:59;;;;;;;2.83;0.30;;;8.70;90.00;;;;;;10384613;28;20120;-65
2022/02/02 14:04:21;;;;;;;7.97;0.80;;;8.70;88.70;;;;;;10378422;28;20065;-65
2022/02/02 14:36:10;;;;;;;12.40;1.45;;;8.80;87.40;;;;;;10388228;28;20345;-66
2022/02/02 14:41:19;;;;;;;9.88;1.13;;;8.70;87.80;;;;;;10382163;28;20037;-65
2022/02/02 14:46:27;;;;;;;6.50;1.90;;;8.80;87.00;;;;;;10383868;28;20553;-65
2022/02/02 15:29:20;;;;;;;10.10;1.02;;;8.90;88.00;;;;;;10380312;28;20091;-65
2022/02/02 15:34:31;;;;;;;12.15;1.15;;;8.80;88.50;;;;;;10379601;28;20052;-65
2022/02/02 15:39:34;;;;;;;9.30;1.23;;;8.80;87.50;;;;;;10377900;28;20065;-65
2022/02/02 15:55:47;;;;;;;11.75;1.20;;;8.80;90.50;;;;;;10374881;28;20050;-61
2022/02/02 16:06:20;;;;;;;12.25;1.15;;;8.80;91.00;;;;;;10383024;28;20049;-61
2022/02/02 16:11:27;;;;;;;14.85;1.52;;;8.70;91.50;;;;;;10383063;28;20164;-65
2022/02/02 16:32:55;;;;;;;9.80;1.42;;;8.30;94.40;;;;;;10388339;28;20052;-65
2022/02/02 16:37:49;;;;;;;12.73;1.45;;;8.10;97.40;;;;;;10389254;28;20132;-65
2022/02/02 16:48:12;;;;;;;10.05;1.10;;;8.00;99.90;;;;;;10384839;28;20129;-65
2022/02/02 17:40:37;;;;;;;13.98;2.30;;;7.40;99.90;;;;;;10388655;28;20044;-62
2022/02/02 18:23:07;;;;;;;12.82;3.97;;;6.40;99.90;;;;;;10347458;28;20049;-62
2022/02/02 18:28:18;;;;;;;19.92;2.92;;;6.20;99.90;;;;;;10381398;28;20084;-62
2022/02/02 18:39:52;;;;;;;14.48;3.53;;;5.90;99.90;;;;;;10379600;28;20060;-62
2022/02/02 18:59:35;;;;;;;20.15;5.70;;;5.30;99.90;;;;;;10380887;28;20136;-62
2022/02/02 19:04:55;;;;;;;17.60;5.50;;;5.10;99.90;;;;;;10382471;28;20041;-60
2022/02/02 19:30:54;;;;;;;18.30;5.50;;;4.70;99.90;;;;;;10377607;28;20049;-61
2022/02/02 19:52:28;;;;;;;17.80;4.43;;;4.20;99.90;;;;;;10386198;28;20128;-61
2022/02/02 20:03:55;;;;;;;19.55;4.63;;;4.10;99.90;;;;;;10331923;28;20041;-62
2022/02/02 20:14:07;;;;;;;18.02;4.60;;;4.00;99.90;;;;;;10342025;28;20136;-61
2022/02/02 20:19:11;;;;;;;19.25;5.13;;;3.90;99.90;;;;;;10345272;28;20508;-61
2022/02/02 20:24:13;;;;;;;11.25;4.28;;;3.80;99.90;;;;;;10341294;28;20093;-62
2022/02/02 20:29:16;;;;;;;16.15;3.20;;;3.80;99.90;;;;;;10335736;28;20053;-62
2022/02/02 20:34:18;;;;;;;9.23;3.60;;;3.80;99.90;;;;;;10384830;28;20049;-61
2022/02/02 20:39:36;;;;;;;14.77;4.03;;;3.80;99.90;;;;;;10389528;28;20083;-62
2022/02/02 20:45:34;;;;;;;19.40;4.82;;;3.80;99.90;;;;;;10384803;28;20077;-61
2022/02/02 21:06:23;;;;;;;13.50;4.38;;;3.90;99.90;;;;;;10350623;28;21515;-62
2022/02/02 21:16:47;;;;;;;10.05;3.25;;;4.00;99.90;;;;;;10386629;28;20781;-62
2022/02/02 21:21:55;;;;;;;17.58;5.78;;;4.10;99.90;;;;;;10388919;28;20045;-62
2022/02/02 21:32:11;;;;;;;13.77;3.47;;;4.10;99.90;;;;;;10383660;28;20120;-62
2022/02/02 21:37:12;;;;;;;18.58;4.40;;;4.00;99.90;;;;;;10392311;28;21228;-62
2022/02/02 21:42:14;;;;;;;20.80;4.43;;;4.00;99.90;;;;;;10383770;28;20065;-62
2022/02/02 21:47:16;;;;;;;17.50;6.78;;;4.10;99.90;;;;;;10387933;28;20090;-62
2022/02/02 21:52:18;;;;;;;17.35;5.18;;;4.10;99.90;;;;;;10385284;28;20413;-61
2022/02/02 21:57:19;;;;;;;21.67;6.63;;;4.10;99.90;;;;;;10384497;28;20071;-62
2022/02/02 22:02:21;;;;;;;19.50;4.63;;;4.20;99.90;;;;;;10379899;28;20061;-63
2022/02/02 22:07:23;;;;;;;18.17;4.65;;;4.20;99.90;;;;;;10384899;28;20497;-62
2022/02/02 22:12:25;;;;;;;15.07;4.65;;;4.20;99.90;;;;;;10383360;28;20142;-62
2022/02/02 22:17:27;;;;;;;16.20;4.22;;;4.20;99.90;;;;;;10384116;28;20492;-61
2022/02/02 22:22:29;;;;;;;17.60;4.18;;;4.30;99.90;;;;;;10379689;28;23515;-61
2022/02/02 22:27:30;;;;;;;18.58;3.72;;;4.30;99.90;;;;;;10386739;28;20072;-61
2022/02/02 22:32:33;;;;;;;19.70;4.72;;;4.50;99.90;;;;;;10383938;28;20361;-62
2022/02/02 22:37:35;;;;;;;14.65;4.03;;;4.50;99.90;;;;;;10382446;28;20474;-61
2022/02/02 22:42:37;;;;;;;12.43;3.58;;;4.60;99.90;;;;;;10378136;28;20120;-61
2022/02/02 22:47:43;;;;;;;19.10;3.92;;;4.60;99.90;;;;;;10382200;28;20145;-62
2022/02/02 22:52:48;;;;;;;17.02;6.47;;;4.70;99.90;;;;;;10375617;28;20046;-62
2022/02/02 22:57:50;;;;;;;12.05;4.03;;;4.80;99.90;;;;;;10383469;28;20057;-61
2022/02/02 23:02:58;;;;;;;12.05;3.55;;;4.80;99.90;;;;;;10386085;28;20099;-61
2022/02/02 23:08:01;;;;;;;;;;;4.90;99.90;;;;;;10379995;28;20146;-61
2022/02/02 23:13:03;;;;;;;14.88;4.55;;;4.90;99.90;;;;;;10380517;28;20014;-62
2022/02/02 23:18:17;;;;;;;15.57;3.40;;;4.90;99.90;;;;;;10384465;28;20550;-62
2022/02/02 23:23:22;;;;;;;18.35;3.65;;;5.00;99.90;;;;;;10379387;28;20074;-63
2022/02/02 23:28:34;;;;;;;22.88;4.18;;;5.00;99.90;;;;;;10375494;28;20587;-62
2022/02/02 23:33:38;;;;;;;17.58;4.63;;;5.10;99.90;;;;;;10381546;28;20119;-62
2022/02/02 23:38:40;;;;;;;13.82;3.63;;;5.10;99.90;;;;;;10377796;28;20037;-63
2022/02/02 23:43:42;;;;;;;14.10;2.90;;;5.20;99.90;;;;;;10379638;28;20080;-62
2022/02/02 23:48:47;;;;;;;9.63;3.53;;;5.20;99.90;;;;;;10384016;28;20045;-62
2022/02/02 23:53:50;;;;;;;13.23;3.67;;;5.20;99.90;;;;;;10385068;28;20491;-62
2022/02/02 23:58:56;;;;;;;22.08;4.38;;;5.20;99.90;;;;;;10380695;28;20080;-62
